Terminal Aerodrome Forecast
Issued by NWS

Home | Current Version | Previous Version | Graphics & Text | Print | Product List | Glossary On
Versions: 1 2 3 4 5 6 7 8 9 10 11 12 13 14 15 16 17 18 19 20 21 22
852
FTUS43 KGRB 260520
TAFATW
TAF
KATW 260520Z 2606/2706 02015G23KT P6SM SCT004 OVC007
      TEMPO 2606/2609 BKN004
     FM260900 02017G26KT P6SM OVC003
     FM261500 04016G25KT P6SM BKN006 OVC010
     FM261700 05013G21KT P6SM BKN014 OVC020
     FM262100 05011G17KT P6SM BKN022 BKN035
     FM270000 05009KT P6SM SCT030 SCT045=

USA.gov is the U.S. government's official web portal to all federal, state and local government web resources and services.